sensor_id;sensor_type;location;lat;lon;timestamp;temperature;humidity
14061;DHT22;7105;43.616;1.434;2022-12-29T00:02:09;10.30;99.90
14061;DHT22;7105;43.616;1.434;2022-12-29T00:04:35;10.30;99.90
14061;DHT22;7105;43.616;1.434;2022-12-29T00:07:00;10.30;99.90
14061;DHT22;7105;43.616;1.434;2022-12-29T00:09:27;10.30;99.90
14061;DHT22;7105;43.616;1.434;2022-12-29T00:11:52;10.30;99.90
14061;DHT22;7105;43.616;1.434;2022-12-29T00:14:19;10.40;99.90
14061;DHT22;7105;43.616;1.434;2022-12-29T00:17:04;10.40;99.90
14061;DHT22;7105;43.616;1.434;2022-12-29T00:19:30;10.30;99.90
14061;DHT22;7105;43.616;1.434;2022-12-29T00:22:15;10.40;99.90
14061;DHT22;7105;43.616;1.434;2022-12-29T00:24:59;10.30;99.90
14061;DHT22;7105;43.616;1.434;2022-12-29T00:27:43;10.30;99.90
14061;DHT22;7105;43.616;1.434;2022-12-29T00:30:27;10.30;99.90
14061;DHT22;7105;43.616;1.434;2022-12-29T00:33:14;10.30;99.90
14061;DHT22;7105;43.616;1.434;2022-12-29T00:36:03;10.30;99.90
14061;DHT22;7105;43.616;1.434;2022-12-29T00:38:32;10.30;99.90
14061;DHT22;7105;43.616;1.434;2022-12-29T00:41:18;10.30;99.90
14061;DHT22;7105;43.616;1.434;2022-12-29T00:44:13;10.30;99.90
14061;DHT22;7105;43.616;1.434;2022-12-29T00:46:40;10.30;99.90
14061;DHT22;7105;43.616;1.434;2022-12-29T00:49:08;10.30;99.90
14061;DHT22;7105;43.616;1.434;2022-12-29T00:51:54;10.40;99.90
14061;DHT22;7105;43.616;1.434;2022-12-29T00:54:20;10.40;99.90
14061;DHT22;7105;43.616;1.434;2022-12-29T00:56:49;10.30;99.90
14061;DHT22;7105;43.616;1.434;2022-12-29T00:59:15;10.40;99.90
14061;DHT22;7105;43.616;1.434;2022-12-29T01:01:41;10.30;99.90
14061;DHT22;7105;43.616;1.434;2022-12-29T01:04:07;10.30;99.90
14061;DHT22;7105;43.616;1.434;2022-12-29T01:06:35;10.30;99.90
14061;DHT22;7105;43.616;1.434;2022-12-29T01:09:01;10.30;99.90
14061;DHT22;7105;43.616;1.434;2022-12-29T01:11:45;10.30;99.90
14061;DHT22;7105;43.616;1.434;2022-12-29T01:14:11;10.30;99.90
14061;DHT22;7105;43.616;1.434;2022-12-29T01:16:37;10.30;99.90
14061;DHT22;7105;43.616;1.434;2022-12-29T01:19:03;10.30;99.90
14061;DHT22;7105;43.616;1.434;2022-12-29T01:21:29;10.30;99.90
14061;DHT22;7105;43.616;1.434;2022-12-29T01:23:55;10.30;99.90
14061;DHT22;7105;43.616;1.434;2022-12-29T01:26:21;10.30;99.90
14061;DHT22;7105;43.616;1.434;2022-12-29T01:28:46;10.30;99.90
14061;DHT22;7105;43.616;1.434;2022-12-29T01:31:13;10.30;99.90
14061;DHT22;7105;43.616;1.434;2022-12-29T01:33:39;10.30;99.90
14061;DHT22;7105;43.616;1.434;2022-12-29T01:36:07;10.30;99.90
14061;DHT22;7105;43.616;1.434;2022-12-29T01:38:35;10.30;99.90
14061;DHT22;7105;43.616;1.434;2022-12-29T01:41:03;10.30;99.90
14061;DHT22;7105;43.616;1.434;2022-12-29T01:46:11;10.30;99.90
14061;DHT22;7105;43.616;1.434;2022-12-29T01:48:40;10.30;99.90
14061;DHT22;7105;43.616;1.434;2022-12-29T01:51:06;10.30;99.90
14061;DHT22;7105;43.616;1.434;2022-12-29T01:53:33;10.30;99.90
14061;DHT22;7105;43.616;1.434;2022-12-29T01:56:04;10.30;99.90
14061;DHT22;7105;43.616;1.434;2022-12-29T01:58:37;10.20;99.90
14061;DHT22;7105;43.616;1.434;2022-12-29T02:01:05;10.30;99.90
14061;DHT22;7105;43.616;1.434;2022-12-29T02:03:31;10.20;99.90
14061;DHT22;7105;43.616;1.434;2022-12-29T02:06:14;10.30;99.90
14061;DHT22;7105;43.616;1.434;2022-12-29T02:08:43;10.30;99.90
14061;DHT22;7105;43.616;1.434;2022-12-29T02:11:11;10.30;99.90
14061;DHT22;7105;43.616;1.434;2022-12-29T02:13:38;10.30;99.90
14061;DHT22;7105;43.616;1.434;2022-12-29T02:27:48;10.30;99.90
14061;DHT22;7105;43.616;1.434;2022-12-29T02:30:36;10.30;99.90
14061;DHT22;7105;43.616;1.434;2022-12-29T02:33:23;10.30;99.90
14061;DHT22;7105;43.616;1.434;2022-12-29T02:36:37;10.30;99.90
14061;DHT22;7105;43.616;1.434;2022-12-29T02:47:51;10.30;99.90
14061;DHT22;7105;43.616;1.434;2022-12-29T02:50:42;10.40;99.90
14061;DHT22;7105;43.616;1.434;2022-12-29T02:53:14;10.30;99.90
14061;DHT22;7105;43.616;1.434;2022-12-29T02:55:51;10.30;99.90
14061;DHT22;7105;43.616;1.434;2022-12-29T02:58:21;10.40;99.90
14061;DHT22;7105;43.616;1.434;2022-12-29T03:01:02;10.30;99.90
14061;DHT22;7105;43.616;1.434;2022-12-29T03:06:31;10.40;99.90
14061;DHT22;7105;43.616;1.434;2022-12-29T03:11:52;10.40;99.90
14061;DHT22;7105;43.616;1.434;2022-12-29T03:15:00;10.40;99.90
14061;DHT22;7105;43.616;1.434;2022-12-29T03:18:04;10.40;99.90
14061;DHT22;7105;43.616;1.434;2022-12-29T03:23:41;10.50;99.90
14061;DHT22;7105;43.616;1.434;2022-12-29T03:26:11;10.50;99.90
14061;DHT22;7105;43.616;1.434;2022-12-29T03:28:48;10.50;99.90
14061;DHT22;7105;43.616;1.434;2022-12-29T03:31:16;10.50;99.90
14061;DHT22;7105;43.616;1.434;2022-12-29T03:33:43;10.60;99.90
14061;DHT22;7105;43.616;1.434;2022-12-29T03:36:13;10.60;99.90
14061;DHT22;7105;43.616;1.434;2022-12-29T03:38:52;10.60;99.90
14061;DHT22;7105;43.616;1.434;2022-12-29T03:41:24;10.60;99.90
14061;DHT22;7105;43.616;1.434;2022-12-29T03:43:51;10.60;99.90
14061;DHT22;7105;43.616;1.434;2022-12-29T03:46:17;10.60;99.90
14061;DHT22;7105;43.616;1.434;2022-12-29T03:48:42;10.60;99.90
14061;DHT22;7105;43.616;1.434;2022-12-29T03:51:08;10.60;99.90
14061;DHT22;7105;43.616;1.434;2022-12-29T03:53:34;10.60;99.90
14061;DHT22;7105;43.616;1.434;2022-12-29T03:55:59;10.70;99.90
14061;DHT22;7105;43.616;1.434;2022-12-29T03:58:25;10.70;99.90
14061;DHT22;7105;43.616;1.434;2022-12-29T04:00:51;10.70;99.90
14061;DHT22;7105;43.616;1.434;2022-12-29T04:03:16;10.70;99.90
14061;DHT22;7105;43.616;1.434;2022-12-29T04:05:42;10.70;99.90
14061;DHT22;7105;43.616;1.434;2022-12-29T04:08:08;10.70;99.90
14061;DHT22;7105;43.616;1.434;2022-12-29T04:10:34;10.70;99.90
14061;DHT22;7105;43.616;1.434;2022-12-29T04:12:59;10.80;99.90
14061;DHT22;7105;43.616;1.434;2022-12-29T04:15:25;10.80;99.90
14061;DHT22;7105;43.616;1.434;2022-12-29T04:17:51;10.80;99.90
14061;DHT22;7105;43.616;1.434;2022-12-29T04:20:17;10.80;99.90
14061;DHT22;7105;43.616;1.434;2022-12-29T04:23:03;10.80;99.90
14061;DHT22;7105;43.616;1.434;2022-12-29T04:25:29;10.80;99.90
14061;DHT22;7105;43.616;1.434;2022-12-29T04:27:55;10.80;99.90
14061;DHT22;7105;43.616;1.434;2022-12-29T04:30:21;10.80;99.90
14061;DHT22;7105;43.616;1.434;2022-12-29T04:32:46;10.80;99.90
14061;DHT22;7105;43.616;1.434;2022-12-29T04:35:12;10.80;99.90
14061;DHT22;7105;43.616;1.434;2022-12-29T04:37:38;10.80;99.90
14061;DHT22;7105;43.616;1.434;2022-12-29T04:40:04;10.80;99.90
14061;DHT22;7105;43.616;1.434;2022-12-29T04:42:29;10.80;99.90
14061;DHT22;7105;43.616;1.434;2022-12-29T04:44:55;10.80;99.90
14061;DHT22;7105;43.616;1.434;2022-12-29T04:47:21;10.80;99.90
14061;DHT22;7105;43.616;1.434;2022-12-29T04:49:46;10.80;99.90
14061;DHT22;7105;43.616;1.434;2022-12-29T04:52:12;10.80;99.90
14061;DHT22;7105;43.616;1.434;2022-12-29T04:54:38;10.80;99.90
14061;DHT22;7105;43.616;1.434;2022-12-29T04:57:03;10.90;99.90
14061;DHT22;7105;43.616;1.434;2022-12-29T04:59:29;10.90;99.90
14061;DHT22;7105;43.616;1.434;2022-12-29T05:01:55;10.90;99.90
14061;DHT22;7105;43.616;1.434;2022-12-29T05:04:20;10.90;99.90
14061;DHT22;7105;43.616;1.434;2022-12-29T05:06:46;11.00;99.90
14061;DHT22;7105;43.616;1.434;2022-12-29T05:09:12;11.00;99.90
14061;DHT22;7105;43.616;1.434;2022-12-29T05:11:37;11.00;99.90
14061;DHT22;7105;43.616;1.434;2022-12-29T05:14:03;11.00;99.90
14061;DHT22;7105;43.616;1.434;2022-12-29T05:16:28;11.00;99.90
14061;DHT22;7105;43.616;1.434;2022-12-29T05:18:54;11.00;99.90
14061;DHT22;7105;43.616;1.434;2022-12-29T05:21:20;11.00;99.90
14061;DHT22;7105;43.616;1.434;2022-12-29T05:23:45;11.00;99.90
14061;DHT22;7105;43.616;1.434;2022-12-29T05:26:11;11.00;99.90
14061;DHT22;7105;43.616;1.434;2022-12-29T05:28:37;11.00;99.90
14061;DHT22;7105;43.616;1.434;2022-12-29T05:31:02;11.00;99.90
14061;DHT22;7105;43.616;1.434;2022-12-29T05:33:28;11.00;99.90
14061;DHT22;7105;43.616;1.434;2022-12-29T05:35:53;11.00;99.90
14061;DHT22;7105;43.616;1.434;2022-12-29T05:38:19;11.00;99.90
14061;DHT22;7105;43.616;1.434;2022-12-29T05:40:45;11.10;99.90
14061;DHT22;7105;43.616;1.434;2022-12-29T05:43:10;11.10;99.90
14061;DHT22;7105;43.616;1.434;2022-12-29T05:45:36;11.10;99.90
14061;DHT22;7105;43.616;1.434;2022-12-29T05:48:02;11.10;99.90
14061;DHT22;7105;43.616;1.434;2022-12-29T05:50:28;11.10;99.90
14061;DHT22;7105;43.616;1.434;2022-12-29T05:52:54;11.10;99.90
14061;DHT22;7105;43.616;1.434;2022-12-29T05:55:20;11.10;99.90
14061;DHT22;7105;43.616;1.434;2022-12-29T05:57:45;11.10;99.90
14061;DHT22;7105;43.616;1.434;2022-12-29T06:00:12;11.10;99.90
14061;DHT22;7105;43.616;1.434;2022-12-29T06:02:37;11.10;99.90
14061;DHT22;7105;43.616;1.434;2022-12-29T06:05:03;11.10;99.90
14061;DHT22;7105;43.616;1.434;2022-12-29T06:07:29;11.10;99.90
14061;DHT22;7105;43.616;1.434;2022-12-29T06:09:55;11.10;99.90
14061;DHT22;7105;43.616;1.434;2022-12-29T06:12:20;11.10;99.90
14061;DHT22;7105;43.616;1.434;2022-12-29T06:14:46;11.00;99.90
14061;DHT22;7105;43.616;1.434;2022-12-29T06:17:12;11.00;99.90
14061;DHT22;7105;43.616;1.434;2022-12-29T06:19:37;10.90;99.90
14061;DHT22;7105;43.616;1.434;2022-12-29T06:22:03;10.90;99.90
14061;DHT22;7105;43.616;1.434;2022-12-29T06:24:28;10.90;99.90
14061;DHT22;7105;43.616;1.434;2022-12-29T06:26:54;10.90;99.90
14061;DHT22;7105;43.616;1.434;2022-12-29T06:29:20;10.90;99.90
14061;DHT22;7105;43.616;1.434;2022-12-29T06:31:46;10.90;99.90
14061;DHT22;7105;43.616;1.434;2022-12-29T06:34:15;10.80;99.90
14061;DHT22;7105;43.616;1.434;2022-12-29T06:36:41;10.80;99.90
14061;DHT22;7105;43.616;1.434;2022-12-29T06:39:06;10.80;99.90
14061;DHT22;7105;43.616;1.434;2022-12-29T06:41:32;10.70;99.90
14061;DHT22;7105;43.616;1.434;2022-12-29T06:43:58;10.80;99.90
14061;DHT22;7105;43.616;1.434;2022-12-29T06:46:24;10.70;99.90
14061;DHT22;7105;43.616;1.434;2022-12-29T06:48:49;10.70;99.90
14061;DHT22;7105;43.616;1.434;2022-12-29T06:51:15;10.60;99.90
14061;DHT22;7105;43.616;1.434;2022-12-29T06:53:40;10.60;99.90
14061;DHT22;7105;43.616;1.434;2022-12-29T06:56:06;10.60;99.90
14061;DHT22;7105;43.616;1.434;2022-12-29T06:58:32;10.60;99.90
14061;DHT22;7105;43.616;1.434;2022-12-29T07:00:58;10.60;99.90
14061;DHT22;7105;43.616;1.434;2022-12-29T07:03:23;10.60;99.90
14061;DHT22;7105;43.616;1.434;2022-12-29T07:05:49;10.60;99.90
14061;DHT22;7105;43.616;1.434;2022-12-29T07:08:15;10.60;99.90
14061;DHT22;7105;43.616;1.434;2022-12-29T07:10:40;10.60;99.90
14061;DHT22;7105;43.616;1.434;2022-12-29T07:13:06;10.60;99.90
14061;DHT22;7105;43.616;1.434;2022-12-29T07:15:36;10.60;99.90
14061;DHT22;7105;43.616;1.434;2022-12-29T07:18:03;10.60;99.90
14061;DHT22;7105;43.616;1.434;2022-12-29T07:20:29;10.70;99.90
14061;DHT22;7105;43.616;1.434;2022-12-29T07:22:55;10.70;99.90
14061;DHT22;7105;43.616;1.434;2022-12-29T07:25:21;10.70;99.90
14061;DHT22;7105;43.616;1.434;2022-12-29T07:27:47;10.60;99.90
14061;DHT22;7105;43.616;1.434;2022-12-29T07:30:13;10.60;99.90
14061;DHT22;7105;43.616;1.434;2022-12-29T07:32:38;10.60;99.90
14061;DHT22;7105;43.616;1.434;2022-12-29T07:35:04;10.60;99.90
14061;DHT22;7105;43.616;1.434;2022-12-29T07:37:30;10.60;99.90
14061;DHT22;7105;43.616;1.434;2022-12-29T07:39:55;10.70;99.90
14061;DHT22;7105;43.616;1.434;2022-12-29T07:42:22;10.70;99.90
14061;DHT22;7105;43.616;1.434;2022-12-29T07:44:48;10.80;99.90
14061;DHT22;7105;43.616;1.434;2022-12-29T07:47:14;10.80;99.90
14061;DHT22;7105;43.616;1.434;2022-12-29T07:49:39;10.90;99.90
14061;DHT22;7105;43.616;1.434;2022-12-29T07:52:05;11.00;99.90
14061;DHT22;7105;43.616;1.434;2022-12-29T07:54:31;11.00;99.90
14061;DHT22;7105;43.616;1.434;2022-12-29T07:56:56;11.10;99.90
14061;DHT22;7105;43.616;1.434;2022-12-29T07:59:23;11.10;99.90
14061;DHT22;7105;43.616;1.434;2022-12-29T08:01:48;11.10;99.90
14061;DHT22;7105;43.616;1.434;2022-12-29T08:04:14;11.10;99.90
14061;DHT22;7105;43.616;1.434;2022-12-29T08:06:40;11.10;99.90
14061;DHT22;7105;43.616;1.434;2022-12-29T08:09:05;11.10;99.90
14061;DHT22;7105;43.616;1.434;2022-12-29T08:11:31;11.10;99.90
14061;DHT22;7105;43.616;1.434;2022-12-29T08:13:57;11.10;99.90
14061;DHT22;7105;43.616;1.434;2022-12-29T08:16:22;11.10;99.90
14061;DHT22;7105;43.616;1.434;2022-12-29T08:18:48;11.20;99.90
14061;DHT22;7105;43.616;1.434;2022-12-29T08:21:13;11.20;99.90
14061;DHT22;7105;43.616;1.434;2022-12-29T08:23:39;11.20;99.90
14061;DHT22;7105;43.616;1.434;2022-12-29T08:26:05;11.30;99.90
14061;DHT22;7105;43.616;1.434;2022-12-29T08:28:32;11.40;99.90
14061;DHT22;7105;43.616;1.434;2022-12-29T08:31:00;11.50;99.90
14061;DHT22;7105;43.616;1.434;2022-12-29T08:33:26;11.60;99.90
14061;DHT22;7105;43.616;1.434;2022-12-29T08:35:53;11.60;99.90
14061;DHT22;7105;43.616;1.434;2022-12-29T08:38:23;11.70;99.90
14061;DHT22;7105;43.616;1.434;2022-12-29T08:40:50;11.80;99.90
14061;DHT22;7105;43.616;1.434;2022-12-29T08:43:16;11.90;99.90
14061;DHT22;7105;43.616;1.434;2022-12-29T08:45:42;12.00;99.90
14061;DHT22;7105;43.616;1.434;2022-12-29T08:48:07;12.30;99.90
14061;DHT22;7105;43.616;1.434;2022-12-29T08:50:33;12.80;99.90
14061;DHT22;7105;43.616;1.434;2022-12-29T08:52:59;12.60;99.90
14061;DHT22;7105;43.616;1.434;2022-12-29T08:55:24;12.50;99.90
14061;DHT22;7105;43.616;1.434;2022-12-29T08:57:50;12.30;99.90
14061;DHT22;7105;43.616;1.434;2022-12-29T09:00:16;12.30;99.90
14061;DHT22;7105;43.616;1.434;2022-12-29T09:02:42;12.30;99.90
14061;DHT22;7105;43.616;1.434;2022-12-29T09:05:08;12.30;99.90
14061;DHT22;7105;43.616;1.434;2022-12-29T09:07:35;12.40;99.90
14061;DHT22;7105;43.616;1.434;2022-12-29T09:10:01;12.30;99.90
14061;DHT22;7105;43.616;1.434;2022-12-29T09:12:27;12.30;99.90
14061;DHT22;7105;43.616;1.434;2022-12-29T09:14:52;12.40;99.90
14061;DHT22;7105;43.616;1.434;2022-12-29T09:17:18;12.40;99.90
14061;DHT22;7105;43.616;1.434;2022-12-29T09:20:03;12.40;99.90
14061;DHT22;7105;43.616;1.434;2022-12-29T09:22:28;12.40;99.90
14061;DHT22;7105;43.616;1.434;2022-12-29T09:24:54;12.40;99.90
14061;DHT22;7105;43.616;1.434;2022-12-29T09:27:20;12.40;99.90
14061;DHT22;7105;43.616;1.434;2022-12-29T09:29:45;12.40;99.90
14061;DHT22;7105;43.616;1.434;2022-12-29T09:32:11;12.50;99.90
14061;DHT22;7105;43.616;1.434;2022-12-29T09:34:38;12.50;99.90
14061;DHT22;7105;43.616;1.434;2022-12-29T09:37:04;12.50;99.90
14061;DHT22;7105;43.616;1.434;2022-12-29T09:39:29;12.50;99.90
14061;DHT22;7105;43.616;1.434;2022-12-29T09:47:05;12.50;99.90
14061;DHT22;7105;43.616;1.434;2022-12-29T09:52:22;12.40;99.90
14061;DHT22;7105;43.616;1.434;2022-12-29T09:54:52;12.50;99.90
14061;DHT22;7105;43.616;1.434;2022-12-29T09:57:25;12.50;99.90
14061;DHT22;7105;43.616;1.434;2022-12-29T09:59:59;12.50;99.90
14061;DHT22;7105;43.616;1.434;2022-12-29T10:02:34;12.40;99.90
14061;DHT22;7105;43.616;1.434;2022-12-29T10:05:02;12.40;99.90
14061;DHT22;7105;43.616;1.434;2022-12-29T10:07:43;12.50;99.90
14061;DHT22;7105;43.616;1.434;2022-12-29T10:10:32;12.40;99.90
14061;DHT22;7105;43.616;1.434;2022-12-29T10:18:59;12.80;99.90
14061;DHT22;7105;43.616;1.434;2022-12-29T10:23:50;12.90;99.90
14061;DHT22;7105;43.616;1.434;2022-12-29T10:26:19;13.00;99.90
14061;DHT22;7105;43.616;1.434;2022-12-29T10:28:54;13.00;99.90
14061;DHT22;7105;43.616;1.434;2022-12-29T10:31:23;13.10;99.90
14061;DHT22;7105;43.616;1.434;2022-12-29T10:33:57;13.10;99.90
14061;DHT22;7105;43.616;1.434;2022-12-29T10:36:44;13.30;99.90
14061;DHT22;7105;43.616;1.434;2022-12-29T10:39:36;13.40;99.90
14061;DHT22;7105;43.616;1.434;2022-12-29T10:44:55;13.30;99.90
14061;DHT22;7105;43.616;1.434;2022-12-29T10:47:25;13.20;99.90
14061;DHT22;7105;43.616;1.434;2022-12-29T10:49:52;13.20;99.90
14061;DHT22;7105;43.616;1.434;2022-12-29T10:52:19;13.10;99.90
14061;DHT22;7105;43.616;1.434;2022-12-29T10:54:51;13.20;99.90
14061;DHT22;7105;43.616;1.434;2022-12-29T10:57:31;13.20;99.90
14061;DHT22;7105;43.616;1.434;2022-12-29T10:59:58;13.20;99.90
14061;DHT22;7105;43.616;1.434;2022-12-29T11:05:41;13.20;99.90
14061;DHT22;7105;43.616;1.434;2022-12-29T11:08:20;13.30;99.90
14061;DHT22;7105;43.616;1.434;2022-12-29T11:10:59;13.30;99.90
14061;DHT22;7105;43.616;1.434;2022-12-29T11:13:28;13.40;99.90
14061;DHT22;7105;43.616;1.434;2022-12-29T11:15:54;13.40;99.90
14061;DHT22;7105;43.616;1.434;2022-12-29T11:18:25;13.50;99.90
14061;DHT22;7105;43.616;1.434;2022-12-29T11:20:56;13.70;99.90
14061;DHT22;7105;43.616;1.434;2022-12-29T11:28:41;13.90;99.90
14061;DHT22;7105;43.616;1.434;2022-12-29T11:31:08;13.90;99.90
14061;DHT22;7105;43.616;1.434;2022-12-29T11:33:35;13.90;99.90
14061;DHT22;7105;43.616;1.434;2022-12-29T11:36:11;14.10;99.90
14061;DHT22;7105;43.616;1.434;2022-12-29T11:38:40;14.20;99.90
14061;DHT22;7105;43.616;1.434;2022-12-29T11:41:11;14.30;99.90
14061;DHT22;7105;43.616;1.434;2022-12-29T11:43:40;14.30;99.90
14061;DHT22;7105;43.616;1.434;2022-12-29T11:46:07;14.30;99.90
14061;DHT22;7105;43.616;1.434;2022-12-29T11:48:40;14.30;99.90
14061;DHT22;7105;43.616;1.434;2022-12-29T11:51:07;14.50;99.90
14061;DHT22;7105;43.616;1.434;2022-12-29T11:53:41;14.50;99.90
14061;DHT22;7105;43.616;1.434;2022-12-29T11:56:10;14.40;99.90
14061;DHT22;7105;43.616;1.434;2022-12-29T11:58:39;14.30;99.90
14061;DHT22;7105;43.616;1.434;2022-12-29T12:01:17;14.30;99.90
14061;DHT22;7105;43.616;1.434;2022-12-29T12:04:12;14.30;99.90
14061;DHT22;7105;43.616;1.434;2022-12-29T12:06:45;14.30;99.90
14061;DHT22;7105;43.616;1.434;2022-12-29T12:09:32;14.40;99.90
14061;DHT22;7105;43.616;1.434;2022-12-29T12:12:01;14.40;99.90
14061;DHT22;7105;43.616;1.434;2022-12-29T12:14:35;14.60;99.90
14061;DHT22;7105;43.616;1.434;2022-12-29T12:17:14;14.60;99.90
14061;DHT22;7105;43.616;1.434;2022-12-29T12:20:18;14.60;99.90
14061;DHT22;7105;43.616;1.434;2022-12-29T12:25:39;14.60;99.90
14061;DHT22;7105;43.616;1.434;2022-12-29T12:28:33;14.60;99.90
14061;DHT22;7105;43.616;1.434;2022-12-29T12:31:02;14.50;99.90
14061;DHT22;7105;43.616;1.434;2022-12-29T12:33:38;14.50;99.90
14061;DHT22;7105;43.616;1.434;2022-12-29T12:42:11;14.70;99.90
14061;DHT22;7105;43.616;1.434;2022-12-29T12:50:18;14.70;99.90
14061;DHT22;7105;43.616;1.434;2022-12-29T13:17:41;14.30;99.90
14061;DHT22;7105;43.616;1.434;2022-12-29T13:23:42;14.40;99.90
14061;DHT22;7105;43.616;1.434;2022-12-29T13:26:39;14.40;99.90
14061;DHT22;7105;43.616;1.434;2022-12-29T13:29:23;14.40;99.90
14061;DHT22;7105;43.616;1.434;2022-12-29T13:37:27;14.50;99.90
14061;DHT22;7105;43.616;1.434;2022-12-29T13:39:57;14.50;99.90
14061;DHT22;7105;43.616;1.434;2022-12-29T13:42:25;14.50;99.90
14061;DHT22;7105;43.616;1.434;2022-12-29T13:47:41;14.60;99.90
14061;DHT22;7105;43.616;1.434;2022-12-29T13:50:22;14.60;99.90
14061;DHT22;7105;43.616;1.434;2022-12-29T13:56:05;14.50;99.90
14061;DHT22;7105;43.616;1.434;2022-12-29T14:03:59;14.50;99.90
14061;DHT22;7105;43.616;1.434;2022-12-29T14:06:33;14.60;99.90
14061;DHT22;7105;43.616;1.434;2022-12-29T14:09:06;14.60;99.90
14061;DHT22;7105;43.616;1.434;2022-12-29T14:11:52;14.60;99.90
14061;DHT22;7105;43.616;1.434;2022-12-29T14:14:29;14.80;99.90
14061;DHT22;7105;43.616;1.434;2022-12-29T14:17:09;15.00;99.90
14061;DHT22;7105;43.616;1.434;2022-12-29T14:19:40;15.00;99.90
14061;DHT22;7105;43.616;1.434;2022-12-29T14:22:08;15.00;99.90
14061;DHT22;7105;43.616;1.434;2022-12-29T14:27:39;15.20;99.90
14061;DHT22;7105;43.616;1.434;2022-12-29T14:29:49;15.30;99.90
14061;DHT22;7105;43.616;1.434;2022-12-29T14:34:59;15.30;99.90
14061;DHT22;7105;43.616;1.434;2022-12-29T14:37:30;15.20;99.90
14061;DHT22;7105;43.616;1.434;2022-12-29T14:40:19;15.10;99.90
14061;DHT22;7105;43.616;1.434;2022-12-29T14:42:46;14.80;99.90
14061;DHT22;7105;43.616;1.434;2022-12-29T14:47:43;14.70;99.90
14061;DHT22;7105;43.616;1.434;2022-12-29T14:53:05;14.50;99.90
14061;DHT22;7105;43.616;1.434;2022-12-29T14:55:41;14.30;99.90
14061;DHT22;7105;43.616;1.434;2022-12-29T14:58:29;14.20;99.90
14061;DHT22;7105;43.616;1.434;2022-12-29T15:00:57;14.20;99.90
14061;DHT22;7105;43.616;1.434;2022-12-29T15:03:28;14.20;99.90
14061;DHT22;7105;43.616;1.434;2022-12-29T15:05:57;14.10;99.90
14061;DHT22;7105;43.616;1.434;2022-12-29T15:08:26;14.10;99.90
14061;DHT22;7105;43.616;1.434;2022-12-29T15:11:21;14.10;99.90
14061;DHT22;7105;43.616;1.434;2022-12-29T15:13:48;14.10;99.90
14061;DHT22;7105;43.616;1.434;2022-12-29T15:16:33;14.10;99.90
14061;DHT22;7105;43.616;1.434;2022-12-29T15:19:02;14.10;99.90
14061;DHT22;7105;43.616;1.434;2022-12-29T15:21:36;14.00;99.90
14061;DHT22;7105;43.616;1.434;2022-12-29T15:24:02;14.00;99.90
14061;DHT22;7105;43.616;1.434;2022-12-29T15:26:44;14.00;99.90
14061;DHT22;7105;43.616;1.434;2022-12-29T15:32:16;13.90;99.90
14061;DHT22;7105;43.616;1.434;2022-12-29T15:34:47;13.90;99.90
14061;DHT22;7105;43.616;1.434;2022-12-29T15:37:27;13.90;99.90
14061;DHT22;7105;43.616;1.434;2022-12-29T15:39:55;13.90;99.90
14061;DHT22;7105;43.616;1.434;2022-12-29T15:44:47;13.70;99.90
14061;DHT22;7105;43.616;1.434;2022-12-29T15:47:16;13.70;99.90
14061;DHT22;7105;43.616;1.434;2022-12-29T15:49:44;13.60;99.90
14061;DHT22;7105;43.616;1.434;2022-12-29T15:52:10;13.60;99.90
14061;DHT22;7105;43.616;1.434;2022-12-29T15:54:36;13.50;99.90
14061;DHT22;7105;43.616;1.434;2022-12-29T15:57:03;13.50;99.90
14061;DHT22;7105;43.616;1.434;2022-12-29T15:59:32;13.50;99.90
14061;DHT22;7105;43.616;1.434;2022-12-29T16:02:00;13.50;99.90
14061;DHT22;7105;43.616;1.434;2022-12-29T16:04:28;13.50;99.90
14061;DHT22;7105;43.616;1.434;2022-12-29T16:09:43;13.40;99.90
14061;DHT22;7105;43.616;1.434;2022-12-29T16:12:19;13.40;99.90
14061;DHT22;7105;43.616;1.434;2022-12-29T16:14:48;13.30;99.90
14061;DHT22;7105;43.616;1.434;2022-12-29T16:17:18;13.30;99.90
14061;DHT22;7105;43.616;1.434;2022-12-29T16:19:53;13.30;99.90
14061;DHT22;7105;43.616;1.434;2022-12-29T16:22:36;13.30;99.90
14061;DHT22;7105;43.616;1.434;2022-12-29T16:25:19;13.20;99.90
14061;DHT22;7105;43.616;1.434;2022-12-29T16:27:45;13.30;99.90
14061;DHT22;7105;43.616;1.434;2022-12-29T16:30:23;13.30;99.90
14061;DHT22;7105;43.616;1.434;2022-12-29T16:32:51;13.20;99.90
14061;DHT22;7105;43.616;1.434;2022-12-29T16:35:23;13.20;99.90
14061;DHT22;7105;43.616;1.434;2022-12-29T16:40:32;13.10;99.90
14061;DHT22;7105;43.616;1.434;2022-12-29T16:43:00;13.10;99.90
14061;DHT22;7105;43.616;1.434;2022-12-29T16:48:50;13.10;99.90
14061;DHT22;7105;43.616;1.434;2022-12-29T16:51:16;13.00;99.90
14061;DHT22;7105;43.616;1.434;2022-12-29T16:53:53;13.00;99.90
14061;DHT22;7105;43.616;1.434;2022-12-29T16:56:22;13.00;99.90
14061;DHT22;7105;43.616;1.434;2022-12-29T17:01:26;13.00;99.90
14061;DHT22;7105;43.616;1.434;2022-12-29T17:03:57;12.90;99.90
14061;DHT22;7105;43.616;1.434;2022-12-29T17:06:23;12.90;99.90
14061;DHT22;7105;43.616;1.434;2022-12-29T17:08:50;12.90;99.90
14061;DHT22;7105;43.616;1.434;2022-12-29T17:11:30;12.90;99.90
14061;DHT22;7105;43.616;1.434;2022-12-29T17:16:53;13.00;99.90
14061;DHT22;7105;43.616;1.434;2022-12-29T17:19:22;12.90;99.90
14061;DHT22;7105;43.616;1.434;2022-12-29T17:21:50;12.70;99.90
14061;DHT22;7105;43.616;1.434;2022-12-29T17:24:17;12.50;99.90
14061;DHT22;7105;43.616;1.434;2022-12-29T17:26:45;12.40;99.90
14061;DHT22;7105;43.616;1.434;2022-12-29T17:29:31;12.30;99.90
14061;DHT22;7105;43.616;1.434;2022-12-29T17:31:58;12.20;99.90
14061;DHT22;7105;43.616;1.434;2022-12-29T17:34:24;12.00;99.90
14061;DHT22;7105;43.616;1.434;2022-12-29T17:36:50;12.00;99.90
14061;DHT22;7105;43.616;1.434;2022-12-29T17:39:16;12.00;99.90
14061;DHT22;7105;43.616;1.434;2022-12-29T17:41:41;11.90;99.90
14061;DHT22;7105;43.616;1.434;2022-12-29T17:44:16;11.80;99.90
14061;DHT22;7105;43.616;1.434;2022-12-29T17:46:43;11.80;99.90
14061;DHT22;7105;43.616;1.434;2022-12-29T17:49:16;11.80;99.90
14061;DHT22;7105;43.616;1.434;2022-12-29T17:51:43;11.80;99.90
14061;DHT22;7105;43.616;1.434;2022-12-29T17:54:21;11.80;99.90
14061;DHT22;7105;43.616;1.434;2022-12-29T17:56:47;11.80;99.90
14061;DHT22;7105;43.616;1.434;2022-12-29T17:59:13;11.90;99.90
14061;DHT22;7105;43.616;1.434;2022-12-29T18:01:44;11.80;99.90
14061;DHT22;7105;43.616;1.434;2022-12-29T18:04:15;11.80;99.90
14061;DHT22;7105;43.616;1.434;2022-12-29T18:06:42;11.80;99.90
14061;DHT22;7105;43.616;1.434;2022-12-29T18:09:08;11.80;99.90
14061;DHT22;7105;43.616;1.434;2022-12-29T18:11:40;11.70;99.90
14061;DHT22;7105;43.616;1.434;2022-12-29T18:14:15;11.60;99.90
14061;DHT22;7105;43.616;1.434;2022-12-29T18:16:41;11.60;99.90
14061;DHT22;7105;43.616;1.434;2022-12-29T18:19:07;11.60;99.90
14061;DHT22;7105;43.616;1.434;2022-12-29T18:21:33;11.60;99.90
14061;DHT22;7105;43.616;1.434;2022-12-29T18:24:00;11.60;99.90
14061;DHT22;7105;43.616;1.434;2022-12-29T18:26:27;11.60;99.90
14061;DHT22;7105;43.616;1.434;2022-12-29T18:28:57;11.70;99.90
14061;DHT22;7105;43.616;1.434;2022-12-29T18:31:25;11.70;99.90
14061;DHT22;7105;43.616;1.434;2022-12-29T18:33:52;11.80;99.90